Time;durP1;ratioP1;P1;durP2;ratioP2;P2;SDS_P1;SDS_P2;PMS_P1;PMS_P2;Temp;Humidity;BMP_temperature;BMP_pressure;BME280_temperature;BME280_humidity;BME280_pressure;Samples;Min_cycle;Max_cycle;Signal;HPM_P1;HPM_P2
2021/01/27 00:01:02;;;;;;;17.27;13.23;;;;;;;4.43;58.66;98531.63;5053555;28;20085;-61
2021/01/27 00:03:28;;;;;;;20.20;13.55;;;;;;;4.42;59.15;98532.59;5070284;28;20048;-59
2021/01/27 00:05:53;;;;;;;17.88;13.25;;;;;;;4.48;58.83;98526.00;5050020;28;20058;-61
2021/01/27 00:08:20;;;;;;;19.35;12.20;;;;;;;3.82;58.84;98413.50;5048772;28;20475;-61
2021/01/27 00:10:47;;;;;;;14.57;11.18;;;;;;;4.57;59.01;98533.22;5054672;28;20435;-60
2021/01/27 00:13:16;;;;;;;17.88;12.35;;;;;;;4.59;59.06;98526.03;5069472;28;20088;-62
2021/01/27 00:15:43;;;;;;;18.42;11.48;;;;;;;4.59;58.95;98523.38;5068372;28;20028;-62
2021/01/27 00:18:11;;;;;;;16.58;10.75;;;;;;;4.57;58.82;98543.84;5053954;28;20056;-60
2021/01/27 00:20:37;;;;;;;15.65;11.30;;;;;;;4.48;59.00;98508.31;5051096;28;20314;-62
2021/01/27 00:23:03;;;;;;;16.17;11.65;;;;;;;4.51;59.27;98523.09;5049813;28;20511;-60
2021/01/27 00:25:31;;;;;;;14.60;11.13;;;;;;;4.53;58.99;98481.41;5049216;28;20452;-61
2021/01/27 00:27:58;;;;;;;15.35;11.35;;;;;;;4.55;59.19;98487.44;5050051;28;20037;-60
2021/01/27 00:30:26;;;;;;;14.57;10.50;;;;;;;4.58;59.15;98480.09;5049709;28;20075;-61
2021/01/27 00:32:52;;;;;;;14.50;10.90;;;;;;;4.59;59.30;98484.44;5057000;28;20135;-62
2021/01/27 00:35:20;;;;;;;14.30;10.73;;;;;;;4.61;58.82;98508.19;5053413;28;20207;-61
2021/01/27 00:37:45;;;;;;;14.75;9.90;;;;;;;4.54;58.71;98477.81;5049213;28;20121;-62
2021/01/27 00:40:11;;;;;;;13.52;10.23;;;;;;;4.58;58.51;98481.91;5049574;28;20566;-56
2021/01/27 00:42:37;;;;;;;14.65;10.10;;;;;;;4.28;58.86;98436.47;5058008;28;20041;-60
2021/01/27 00:45:04;;;;;;;16.80;10.90;;;;;;;4.38;59.08;98452.50;5069438;28;20561;-62
2021/01/27 00:47:30;;;;;;;15.63;10.80;;;;;;;4.20;58.66;98427.44;5069213;28;20123;-57
2021/01/27 00:49:55;;;;;;;14.50;10.23;;;;;;;4.49;58.89;98449.03;5068970;28;20476;-59
2021/01/27 00:52:21;;;;;;;12.93;10.00;;;;;;;4.58;58.44;98473.94;5050878;28;20401;-61
2021/01/27 00:54:46;;;;;;;15.65;10.80;;;;;;;4.55;58.56;98468.88;5048928;28;20033;-61
2021/01/27 00:57:12;;;;;;;11.98;9.43;;;;;;;4.06;58.46;98371.03;5049139;28;20045;-60
2021/01/27 00:59:37;;;;;;;14.02;9.20;;;;;;;4.62;58.52;98470.13;5049106;28;20040;-62
2021/01/27 01:02:03;;;;;;;12.82;9.27;;;;;;;4.57;58.97;98456.34;5049568;28;20028;-61
2021/01/27 01:04:28;;;;;;;13.25;8.68;;;;;;;4.44;57.96;98414.94;5050242;28;20073;-60
2021/01/27 01:06:55;;;;;;;12.27;9.18;;;;;;;4.57;58.65;98466.97;5048735;28;20124;-61
2021/01/27 01:09:20;;;;;;;12.05;9.05;;;;;;;4.64;57.92;98456.72;5049212;28;20029;-62
2021/01/27 01:11:46;;;;;;;10.68;8.77;;;;;;;4.51;58.19;98431.19;5049156;28;20044;-61
2021/01/27 01:14:11;;;;;;;11.48;7.80;;;;;;;4.59;58.08;98459.75;5049511;28;20297;-62
2021/01/27 01:16:38;;;;;;;11.98;9.43;;;;;;;4.18;57.78;98363.94;5062547;28;20454;-61
2021/01/27 01:19:07;;;;;;;12.52;8.60;;;;;;;4.61;57.86;98468.44;5069563;28;20108;-61
2021/01/27 01:21:32;;;;;;;7.97;6.28;;;;;;;4.77;57.46;98430.09;5068329;28;20051;-61
2021/01/27 01:23:58;;;;;;;9.95;7.85;;;;;;;4.58;58.14;98436.84;5067163;28;20380;-61
2021/01/27 01:26:23;;;;;;;9.90;7.88;;;;;;;4.54;58.40;98420.34;5068955;28;20476;-60
2021/01/27 01:28:49;;;;;;;9.43;7.53;;;;;;;4.41;58.47;98414.31;5069161;28;20058;-60
2021/01/27 01:31:14;;;;;;;10.90;8.38;;;;;;;4.22;58.44;98365.44;5068551;28;20056;-60
2021/01/27 01:33:40;;;;;;;9.48;7.32;;;;;;;4.38;58.59;98404.81;5068614;28;20048;-61
2021/01/27 01:36:05;;;;;;;10.48;7.72;;;;;;;4.49;58.71;98433.13;5059067;28;20051;-60
2021/01/27 01:38:31;;;;;;;9.70;7.70;;;;;;;4.37;58.96;98423.47;5052051;28;20493;-53
2021/01/27 01:40:59;;;;;;;9.60;6.80;;;;;;;4.49;58.72;98427.81;5052952;28;20063;-62
2021/01/27 01:43:30;;;;;;;9.52;6.93;;;;;;;4.51;59.11;98425.03;5052424;28;20028;-62
2021/01/27 01:45:57;;;;;;;7.82;6.47;;;;;;;4.50;58.92;98431.31;5053765;28;20029;-60
2021/01/27 01:48:44;;;;;;;8.05;6.50;;;;;;;4.44;59.18;98436.13;5052960;28;20037;-61
2021/01/27 01:51:38;;;;;;;7.70;6.53;;;;;;;4.42;58.77;98398.31;5052150;28;20531;-61
2021/01/27 01:54:34;;;;;;;10.35;6.70;;;;;;;4.51;58.20;98425.03;5052419;28;20459;-61
2021/01/27 01:57:03;;;;;;;8.30;6.80;;;;;;;4.48;58.45;98414.69;5065609;28;20102;-60
2021/01/27 01:59:33;;;;;;;8.77;6.28;;;;;;;4.38;58.55;98393.34;5072908;28;20125;-61
2021/01/27 02:02:06;;;;;;;7.57;5.85;;;;;;;4.50;58.13;98418.06;5072084;28;20040;-60
2021/01/27 02:04:38;;;;;;;9.57;6.28;;;;;;;4.12;57.12;98360.00;5058331;28;20460;-61
2021/01/27 02:07:04;;;;;;;7.93;5.90;;;;;;;4.11;57.74;98341.56;5053607;28;20527;-62
2021/01/27 02:09:29;;;;;;;6.78;5.82;;;;;;;3.90;58.22;98288.47;5052804;28;20056;-61
2021/01/27 02:12:19;;;;;;;7.10;5.60;;;;;;;4.58;57.83;98389.13;5055036;28;20040;-60
2021/01/27 02:15:02;;;;;;;7.28;5.65;;;;;;;4.58;57.41;98394.44;5071730;28;20629;-61
2021/01/27 02:17:39;;;;;;;6.85;5.65;;;;;;;4.55;57.72;98405.28;5053539;28;20115;-62
2021/01/27 02:20:04;;;;;;;;;;;;;;;4.72;57.35;98396.84;5050916;28;20032;-60
2021/01/27 02:22:49;;;;;;;7.50;5.18;;;;;;;4.61;56.27;98386.25;5051788;28;19913;-60
2021/01/27 02:25:43;;;;;;;7.10;5.88;;;;;;;4.62;56.39;98395.03;5051244;28;20141;-60
2021/01/27 02:28:13;;;;;;;6.60;5.53;;;;;;;4.56;56.87;98391.91;5052674;28;20047;-59
2021/01/27 02:31:01;;;;;;;8.98;5.72;;;;;;;4.54;56.86;98385.03;5051595;28;20083;-60
2021/01/27 02:34:03;;;;;;;7.13;5.60;;;;;;;4.56;56.79;98425.50;5056924;28;20095;-58
2021/01/27 02:37:02;;;;;;;6.93;5.18;;;;;;;4.47;56.17;98368.81;5058477;28;20094;-61
2021/01/27 02:39:32;;;;;;;6.53;4.72;;;;;;;4.05;55.52;98287.25;5056736;28;20183;-59
2021/01/27 02:42:09;;;;;;;6.93;5.05;;;;;;;4.52;56.13;98385.19;5051694;28;20040;-60
2021/01/27 02:44:49;;;;;;;5.45;4.60;;;;;;;4.61;55.97;98386.25;5051327;28;20082;-53
2021/01/27 02:47:31;;;;;;;7.22;4.60;;;;;;;4.63;55.52;98371.06;5050718;28;20047;-62
2021/01/27 02:50:04;;;;;;;6.15;4.03;;;;;;;4.58;55.07;98357.31;5052835;28;20037;-59
2021/01/27 02:52:37;;;;;;;6.05;4.60;;;;;;;4.05;54.55;98279.31;5067990;28;20036;-61
2021/01/27 02:55:16;;;;;;;4.90;4.18;;;;;;;4.64;54.78;98364.81;5071418;28;20380;-62
2021/01/27 02:58:25;;;;;;;5.68;3.92;;;;;;;4.69;55.06;98373.22;5071764;28;20036;-60
2021/01/27 03:01:02;;;;;;;4.63;3.60;;;;;;;4.75;54.57;98374.56;5068547;28;20044;-61
2021/01/27 03:03:38;;;;;;;5.53;3.75;;;;;;;4.79;54.72;98375.13;5070071;28;20048;-61
2021/01/27 03:06:09;;;;;;;5.35;4.00;;;;;;;4.75;54.77;98377.22;5071686;28;20036;-63
2021/01/27 03:08:44;;;;;;;5.22;4.28;;;;;;;4.74;53.81;98378.16;5071174;28;20025;-57
2021/01/27 03:11:30;;;;;;;5.28;3.85;;;;;;;4.24;53.75;98305.22;5053017;28;20436;-62
2021/01/27 03:13:56;;;;;;;7.07;4.30;;;;;;;4.79;54.09;98406.94;5051412;28;20037;-58
2021/01/27 03:16:33;;;;;;;5.45;4.45;;;;;;;4.76;54.12;98393.94;5050629;28;20060;-60
2021/01/27 03:19:10;;;;;;;5.28;3.95;;;;;;;4.68;54.04;98368.03;5050463;28;20461;-61
2021/01/27 03:21:58;;;;;;;4.93;4.03;;;;;;;4.83;54.27;98382.72;5052311;28;20532;-61
2021/01/27 03:24:24;;;;;;;5.70;4.30;;;;;;;4.74;53.88;98384.31;5049611;28;20037;-61
2021/01/27 03:26:58;;;;;;;5.90;4.35;;;;;;;4.71;54.19;98381.91;5050565;28;20041;-63
2021/01/27 03:29:44;;;;;;;5.03;3.90;;;;;;;4.79;53.66;98383.09;5050613;28;20147;-62
2021/01/27 03:32:19;;;;;;;4.25;3.30;;;;;;;4.65;52.80;98358.53;5051646;28;20109;-58
2021/01/27 03:34:47;;;;;;;5.13;4.03;;;;;;;4.52;53.20;98363.13;5049519;28;20349;-62
2021/01/27 03:37:27;;;;;;;7.45;4.03;;;;;;;4.55;52.44;98374.31;5050207;28;20055;-62
2021/01/27 03:39:59;;;;;;;4.95;3.85;;;;;;;4.62;51.85;98387.94;5048857;28;20033;-62
2021/01/27 03:42:40;;;;;;;5.88;3.72;;;;;;;4.07;51.80;98310.97;5054228;28;20061;-61
2021/01/27 03:45:09;;;;;;;5.82;3.67;;;;;;;4.55;51.06;98399.97;5065239;28;20579;-61
2021/01/27 03:47:43;;;;;;;5.43;3.22;;;;;;;4.47;51.00;98378.53;5060744;28;20088;-61
2021/01/27 03:50:29;;;;;;;4.50;3.40;;;;;;;4.52;50.47;98400.22;5049720;28;20112;-60
2021/01/27 03:52:57;;;;;;;;;;;;;;;4.65;50.74;98393.00;5058719;28;20047;-59
2021/01/27 03:55:31;;;;;;;4.63;3.20;;;;;;;4.35;49.49;98356.50;5067893;28;19955;-62
2021/01/27 03:58:13;;;;;;;3.60;2.88;;;;;;;4.45;49.29;98389.25;5068859;28;20585;-61
2021/01/27 04:00:39;;;;;;;3.83;2.22;;;;;;;4.42;49.23;98400.09;5069995;28;20138;-57
2021/01/27 04:03:13;;;;;;;3.95;2.47;;;;;;;4.40;48.79;98402.88;5068691;28;20040;-60
2021/01/27 04:05:39;;;;;;;3.15;2.33;;;;;;;4.25;48.37;98356.38;5069913;28;20032;-62
2021/01/27 04:08:05;;;;;;;3.53;2.80;;;;;;;4.36;47.92;98351.09;5069413;28;20043;-60
2021/01/27 04:10:30;;;;;;;3.60;2.45;;;;;;;4.35;47.34;98390.94;5056309;28;20057;-60
2021/01/27 04:12:56;;;;;;;4.22;2.55;;;;;;;4.18;47.56;98371.06;5049810;28;20036;-55
2021/01/27 04:15:21;;;;;;;3.08;2.42;;;;;;;4.41;46.98;98388.66;5050071;28;20044;-59
2021/01/27 04:17:47;;;;;;;4.10;2.85;;;;;;;4.36;47.51;98385.53;5049373;28;20040;-60
2021/01/27 04:20:12;;;;;;;4.47;2.88;;;;;;;4.40;47.20;98376.38;5049346;28;20064;-60
2021/01/27 04:22:38;;;;;;;3.67;2.47;;;;;;;4.40;46.60;98391.41;5049165;28;20090;-60
2021/01/27 04:25:04;;;;;;;4.63;2.63;;;;;;;4.26;46.89;98352.75;5050870;28;20040;-58
2021/01/27 04:27:30;;;;;;;3.58;2.53;;;;;;;4.21;47.64;98366.34;5049391;28;20477;-59
2021/01/27 04:29:55;;;;;;;4.38;2.60;;;;;;;4.19;47.02;98340.97;5049341;28;20057;-59
2021/01/27 04:32:21;;;;;;;5.00;2.33;;;;;;;4.37;47.33;98371.31;5049435;28;20174;-60
2021/01/27 04:34:46;;;;;;;5.40;3.05;;;;;;;4.27;47.40;98357.09;5050067;28;20032;-59
2021/01/27 04:37:12;;;;;;;4.03;2.95;;;;;;;4.34;46.99;98379.53;5049627;28;20035;-60
2021/01/27 04:39:37;;;;;;;4.53;2.97;;;;;;;4.34;47.16;98368.06;5048797;28;20507;-53
2021/01/27 04:42:03;;;;;;;3.60;2.88;;;;;;;4.31;47.44;98367.34;5049375;28;20048;-58
2021/01/27 04:44:29;;;;;;;3.85;2.95;;;;;;;4.33;47.13;98367.22;5049633;28;20052;-61
2021/01/27 04:47:10;;;;;;;4.45;2.97;;;;;;;4.23;47.77;98367.09;5060020;28;20029;-60
2021/01/27 04:49:41;;;;;;;5.13;3.40;;;;;;;3.86;47.99;98315.19;5049160;28;20052;-59
2021/01/27 04:52:14;;;;;;;4.70;3.08;;;;;;;4.31;47.44;98374.44;5049750;28;20158;-57
2021/01/27 04:55:05;;;;;;;3.92;3.03;;;;;;;4.40;47.56;98379.03;5048863;28;20098;-59
2021/01/27 04:57:37;;;;;;;4.13;3.38;;;;;;;4.36;47.22;98387.34;5049983;28;20048;-58
2021/01/27 05:00:21;;;;;;;3.67;3.17;;;;;;;4.35;47.32;98383.00;5049394;28;20047;-61
2021/01/27 05:02:51;;;;;;;3.30;2.67;;;;;;;4.33;47.49;98390.22;5049051;28;20492;-59
2021/01/27 05:05:31;;;;;;;4.40;3.63;;;;;;;4.35;47.33;98378.56;5048629;28;20037;-58
2021/01/27 05:08:18;;;;;;;4.72;3.10;;;;;;;3.94;47.74;98311.09;5050412;28;20156;-60
2021/01/27 05:10:53;;;;;;;;;;;;;;;4.52;46.90;98386.97;5052975;28;20133;-60
2021/01/27 05:13:33;;;;;;;4.03;2.80;;;;;;;4.42;46.60;98379.75;5051621;28;20422;-59
2021/01/27 05:16:02;;;;;;;3.53;3.05;;;;;;;4.33;47.38;98375.16;5052421;28;20044;-61
2021/01/27 05:18:27;;;;;;;4.13;3.17;;;;;;;4.37;46.79;98383.72;5054214;28;20893;-60
2021/01/27 05:20:54;;;;;;;4.75;3.05;;;;;;;4.35;47.42;98389.16;5051880;28;20119;-61
2021/01/27 05:23:20;;;;;;;4.20;3.22;;;;;;;4.31;47.43;98383.25;5054550;28;20074;-62
2021/01/27 05:26:03;;;;;;;6.78;2.95;;;;;;;4.40;47.41;98379.03;5073008;28;20044;-60
2021/01/27 05:28:33;;;;;;;5.93;3.30;;;;;;;4.38;47.13;98388.06;5071579;28;20055;-60
2021/01/27 05:30:58;;;;;;;5.28;3.20;;;;;;;4.39;47.07;98411.81;5071480;28;20053;-59
2021/01/27 05:33:43;;;;;;;5.18;3.30;;;;;;;4.31;47.40;98403.56;5071945;28;20044;-61
2021/01/27 05:36:14;;;;;;;5.22;3.13;;;;;;;4.34;47.48;98389.25;5072674;28;20070;-61
2021/01/27 05:38:40;;;;;;;6.07;3.13;;;;;;;3.97;47.68;98324.09;5071082;28;20520;-62
2021/01/27 05:41:14;;;;;;;4.32;3.30;;;;;;;4.36;47.80;98390.84;5055982;28;20132;-61
2021/01/27 05:43:40;;;;;;;4.50;3.15;;;;;;;4.39;47.54;98387.94;5053080;28;20040;-60
2021/01/27 05:46:11;;;;;;;3.90;3.13;;;;;;;4.41;47.31;98404.56;5052943;28;20067;-62
2021/01/27 05:48:49;;;;;;;4.97;3.40;;;;;;;4.39;47.54;98395.03;5054013;28;20047;-63
2021/01/27 05:51:26;;;;;;;4.25;3.08;;;;;;;4.39;48.05;98397.69;5063303;28;20130;-63
2021/01/27 05:53:51;;;;;;;4.00;3.10;;;;;;;3.91;47.46;98311.34;5051622;28;20037;-60
2021/01/27 05:56:20;;;;;;;4.57;3.38;;;;;;;4.42;48.12;98406.25;5068746;28;20093;-60
2021/01/27 05:58:59;;;;;;;4.00;3.13;;;;;;;4.43;47.67;98413.25;5072530;28;20036;-58
2021/01/27 06:01:46;;;;;;;5.00;2.80;;;;;;;4.45;47.23;98394.56;5072190;28;20036;-60
2021/01/27 06:04:11;;;;;;;4.47;3.00;;;;;;;4.43;47.88;98407.94;5071857;28;20123;-62
2021/01/27 06:07:01;;;;;;;4.07;3.03;;;;;;;4.45;47.82;98389.25;5072479;28;20128;-61
2021/01/27 06:09:43;;;;;;;4.82;3.15;;;;;;;4.45;47.90;98405.16;5068342;28;20468;-60
2021/01/27 06:12:19;;;;;;;5.50;3.90;;;;;;;4.45;47.87;98390.09;5051619;28;20480;-61
2021/01/27 06:14:49;;;;;;;4.20;2.88;;;;;;;4.45;47.81;98406.00;5050724;28;20476;-61
2021/01/27 06:17:27;;;;;;;4.68;3.28;;;;;;;4.47;48.09;98423.59;5057335;28;20040;-62
2021/01/27 06:20:22;;;;;;;5.57;3.58;;;;;;;4.52;47.91;98405.53;5070708;28;20037;-61
2021/01/27 06:23:06;;;;;;;7.38;3.40;;;;;;;4.50;48.00;98407.44;5051233;28;20890;-62
2021/01/27 06:26:03;;;;;;;4.80;3.30;;;;;;;4.51;48.44;98403.84;5052031;28;20053;-62
2021/01/27 06:28:50;;;;;;;5.55;2.95;;;;;;;4.49;48.40;98406.63;5049486;28;20508;-57
2021/01/27 06:31:27;;;;;;;4.00;3.00;;;;;;;4.37;47.44;98384.56;5057684;28;20084;-63
2021/01/27 06:34:17;;;;;;;4.53;3.15;;;;;;;4.51;48.44;98410.00;5050095;28;20408;-62
2021/01/27 06:37:07;;;;;;;5.78;3.15;;;;;;;3.96;48.43;98320.59;5051143;28;20051;-64
2021/01/27 06:39:44;;;;;;;5.78;3.67;;;;;;;4.48;48.49;98415.53;5068181;28;20119;-62
2021/01/27 06:42:44;;;;;;;5.18;3.40;;;;;;;4.31;48.22;98387.69;5069316;28;20048;-62
2021/01/27 06:45:44;;;;;;;5.40;3.55;;;;;;;4.47;48.18;98403.25;5071174;28;20528;-64
2021/01/27 06:48:34;;;;;;;7.82;4.95;;;;;;;4.50;48.21;98412.75;5050323;28;20040;-62
2021/01/27 06:51:03;;;;;;;10.40;5.28;;;;;;;4.44;48.45;98404.31;5050821;28;20048;-64
2021/01/27 06:53:44;;;;;;;9.07;5.85;;;;;;;4.42;48.38;98416.84;5062276;28;20036;-63
2021/01/27 06:56:21;;;;;;;7.88;5.32;;;;;;;4.47;48.09;98420.94;5051334;28;20032;-59
2021/01/27 06:59:23;;;;;;;7.07;4.90;;;;;;;4.49;47.92;98425.19;5050793;28;20090;-63
2021/01/27 07:02:00;;;;;;;7.70;4.57;;;;;;;4.48;48.37;98431.44;5051125;28;20040;-63
2021/01/27 07:05:02;;;;;;;6.40;3.70;;;;;;;4.50;48.78;98420.72;5050395;28;20090;-63
2021/01/27 07:07:46;;;;;;;7.50;4.13;;;;;;;4.15;48.32;98378.28;5050869;28;20111;-64
2021/01/27 07:10:42;;;;;;;5.68;3.75;;;;;;;4.51;48.67;98433.00;5050763;28;20102;-61
2021/01/27 07:13:35;;;;;;;5.03;3.40;;;;;;;4.56;48.52;98441.41;5051167;28;20044;-56
2021/01/27 07:16:10;;;;;;;6.60;3.40;;;;;;;4.35;48.11;98410.34;5050951;28;20044;-64
2021/01/27 07:18:39;;;;;;;5.78;3.40;;;;;;;4.49;48.56;98448.16;5068300;28;20439;-59
2021/01/27 07:21:17;;;;;;;6.28;3.63;;;;;;;4.48;48.09;98441.19;5069422;28;20064;-64
2021/01/27 07:24:02;;;;;;;5.88;3.30;;;;;;;4.45;48.07;98437.81;5061068;28;20401;-64
2021/01/27 07:26:32;;;;;;;10.87;3.87;;;;;;;4.45;48.38;98448.41;5057941;28;20445;-62
2021/01/27 07:29:15;;;;;;;4.80;3.40;;;;;;;4.46;48.94;98441.28;5057797;28;20033;-64
2021/01/27 07:31:58;;;;;;;3.80;2.85;;;;;;;4.48;48.01;98473.00;5058780;28;20452;-64
2021/01/27 07:34:41;;;;;;;3.80;2.85;;;;;;;4.49;48.69;98453.47;5058445;28;20614;-63
2021/01/27 07:37:23;;;;;;;7.28;3.35;;;;;;;4.51;48.34;98451.53;5058399;28;20040;-64
2021/01/27 07:40:11;;;;;;;5.85;3.90;;;;;;;4.58;48.33;98442.13;5058713;28;20060;-64
2021/01/27 07:42:46;;;;;;;4.90;3.10;;;;;;;3.99;48.28;98361.88;5060195;28;20040;-60
2021/01/27 07:45:39;;;;;;;6.45;3.63;;;;;;;4.77;48.63;98460.13;5057225;28;20085;-64
2021/01/27 07:48:23;;;;;;;5.43;3.40;;;;;;;4.83;47.91;98472.88;5048819;28;20040;-63
2021/01/27 07:50:58;;;;;;;5.13;2.90;;;;;;;4.85;47.76;98473.63;5055648;28;20035;-59
2021/01/27 07:53:26;;;;;;;4.47;3.47;;;;;;;4.45;47.46;98408.66;5069298;28;20122;-63
2021/01/27 07:56:08;;;;;;;5.07;3.33;;;;;;;4.88;47.39;98480.50;5063785;28;20037;-58
2021/01/27 07:58:46;;;;;;;4.85;3.10;;;;;;;4.74;47.48;98461.19;5061383;28;20105;-61
2021/01/27 08:01:19;;;;;;;4.78;3.00;;;;;;;4.51;47.35;98441.81;5053691;28;21077;-58
2021/01/27 08:04:03;;;;;;;3.70;2.80;;;;;;;4.81;47.83;98484.56;5064891;28;20090;-61
2021/01/27 08:06:39;;;;;;;4.97;3.20;;;;;;;4.82;47.97;98480.94;5054984;28;20474;-64
2021/01/27 08:09:04;;;;;;;;;;;;;;;5.02;47.59;98480.22;5050517;28;20033;-63
2021/01/27 08:11:40;;;;;;;5.82;2.83;;;;;;;4.92;47.51;98466.03;5066878;28;19912;-61
2021/01/27 08:14:08;;;;;;;4.47;3.38;;;;;;;5.09;47.42;98514.25;5050160;28;20102;-60
2021/01/27 08:16:35;;;;;;;7.35;2.90;;;;;;;5.10;47.42;98510.63;5050632;28;20048;-61
2021/01/27 08:19:07;;;;;;;5.88;3.45;;;;;;;5.19;47.24;98509.06;5049436;28;20120;-68
2021/01/27 08:21:55;;;;;;;4.72;3.15;;;;;;;5.24;47.31;98523.63;5049569;28;20036;-61
2021/01/27 08:24:36;;;;;;;5.53;3.25;;;;;;;5.26;46.95;98516.38;5064520;28;20121;-60
2021/01/27 08:27:14;;;;;;;8.73;3.60;;;;;;;5.28;46.80;98519.75;5055607;28;20416;-63
2021/01/27 08:30:02;;;;;;;4.93;3.22;;;;;;;5.25;47.30;98532.44;5047524;28;20052;-60
2021/01/27 08:32:40;;;;;;;5.63;3.28;;;;;;;4.95;47.28;98462.28;5048944;28;20056;-62
2021/01/27 08:35:08;;;;;;;4.82;3.47;;;;;;;5.28;46.83;98511.81;5049593;28;20040;-60
2021/01/27 08:37:39;;;;;;;5.43;3.33;;;;;;;5.29;47.53;98518.78;5049479;28;20044;-61
2021/01/27 08:40:31;;;;;;;7.10;3.67;;;;;;;5.38;46.78;98529.66;5049193;28;20056;-59
2021/01/27 08:43:00;;;;;;;5.13;3.17;;;;;;;5.25;46.58;98520.00;5059564;28;20024;-60
2021/01/27 08:45:32;;;;;;;5.10;2.90;;;;;;;5.26;46.71;98523.53;5048512;28;20039;-63
2021/01/27 08:48:01;;;;;;;5.65;2.97;;;;;;;5.29;46.93;98508.19;5048841;28;20558;-61
2021/01/27 08:50:42;;;;;;;5.20;3.33;;;;;;;5.36;47.13;98516.50;5049960;28;20047;-55
2021/01/27 08:53:11;;;;;;;4.20;3.03;;;;;;;5.39;46.35;98532.19;5049640;28;20179;-58
2021/01/27 08:55:53;;;;;;;4.65;3.33;;;;;;;5.50;46.76;98526.00;5046814;28;20044;-62
2021/01/27 08:58:26;;;;;;;4.28;2.88;;;;;;;5.46;47.11;98508.66;5069029;28;20044;-60
2021/01/27 09:00:54;;;;;;;6.32;4.43;;;;;;;5.00;46.40;98430.94;5061638;28;20039;-60
2021/01/27 09:03:38;;;;;;;4.85;3.35;;;;;;;5.57;46.91;98524.56;5071981;28;20036;-61
2021/01/27 09:06:05;;;;;;;4.05;2.72;;;;;;;5.56;46.66;98522.88;5070972;28;20064;-63
2021/01/27 09:08:33;;;;;;;4.10;2.78;;;;;;;5.64;46.01;98529.38;5073785;28;20047;-63
2021/01/27 09:11:07;;;;;;;4.78;3.05;;;;;;;5.51;46.00;98554.25;5069419;28;20067;-62
2021/01/27 09:13:36;;;;;;;4.57;2.85;;;;;;;5.47;45.90;98544.84;5077958;28;20063;-60
2021/01/27 09:16:14;;;;;;;4.78;3.00;;;;;;;5.31;46.61;98522.19;5075157;28;20079;-56
2021/01/27 09:18:41;;;;;;;4.10;2.70;;;;;;;5.42;46.02;98547.84;5085193;28;20036;-61
2021/01/27 09:21:16;;;;;;;4.28;2.70;;;;;;;5.33;46.06;98548.59;5065656;28;20047;-56
2021/01/27 09:23:44;;;;;;;3.33;2.60;;;;;;;5.25;46.61;98540.41;5068666;28;20036;-60
2021/01/27 09:26:15;;;;;;;4.40;3.08;;;;;;;5.22;46.58;98532.69;5074962;28;20071;-61
2021/01/27 09:28:40;;;;;;;6.60;2.60;;;;;;;4.71;46.88;98455.31;5078278;28;20051;-60
2021/01/27 09:31:21;;;;;;;3.97;2.42;;;;;;;5.21;46.92;98554.91;5080182;28;20049;-61
2021/01/27 09:33:47;;;;;;;4.07;2.90;;;;;;;4.91;46.88;98512.06;5066367;28;20158;-59
2021/01/27 09:36:22;;;;;;;3.53;2.47;;;;;;;5.18;47.29;98566.59;5076614;28;20178;-61
2021/01/27 09:38:52;;;;;;;4.15;2.80;;;;;;;5.19;46.69;98557.66;5071395;28;20047;-61
2021/01/27 09:41:29;;;;;;;4.47;2.70;;;;;;;5.06;47.24;98549.81;5081263;28;20405;-61
2021/01/27 09:43:56;;;;;;;4.20;2.80;;;;;;;5.11;47.29;98571.50;5071500;28;20036;-62
2021/01/27 09:46:37;;;;;;;4.97;2.95;;;;;;;5.16;47.30;98568.50;5072921;28;20047;-59
2021/01/27 09:49:14;;;;;;;4.88;2.40;;;;;;;5.18;47.40;98571.88;5061741;28;20032;-59
2021/01/27 09:51:47;;;;;;;5.22;2.47;;;;;;;4.93;47.01;98541.97;5078469;28;20037;-57
2021/01/27 09:54:13;;;;;;;3.85;2.80;;;;;;;5.12;46.93;98583.00;5078812;28;20381;-61
2021/01/27 09:56:38;;;;;;;4.40;3.17;;;;;;;5.06;47.01;98568.38;5058438;28;20037;-61
2021/01/27 09:59:04;;;;;;;5.32;2.75;;;;;;;4.96;47.05;98556.81;5087370;28;20469;-59
2021/01/27 10:01:32;;;;;;;4.47;2.40;;;;;;;5.11;47.01;98592.75;5077817;28;20483;-60
2021/01/27 10:04:12;;;;;;;4.43;2.80;;;;;;;4.83;47.23;98559.56;5067955;28;20043;-61
2021/01/27 10:06:46;;;;;;;3.70;2.67;;;;;;;5.01;47.52;98589.97;5086027;28;20043;-61
2021/01/27 10:09:20;;;;;;;3.40;2.53;;;;;;;5.11;47.22;98605.19;5063001;28;20024;-61
2021/01/27 10:11:48;;;;;;;3.80;2.90;;;;;;;5.10;47.41;98614.94;5077753;28;20037;-62
2021/01/27 10:14:27;;;;;;;4.47;2.97;;;;;;;4.98;47.14;98586.72;5057773;28;20547;-62
2021/01/27 10:17:00;;;;;;;5.57;2.65;;;;;;;5.04;47.38;98602.16;5089991;28;20408;-62
2021/01/27 10:19:49;;;;;;;3.67;2.60;;;;;;;5.04;47.18;98607.47;5083578;28;20519;-60
2021/01/27 10:22:30;;;;;;;3.80;2.78;;;;;;;4.76;47.46;98566.28;5085885;28;20434;-63
2021/01/27 10:25:03;;;;;;;6.22;3.30;;;;;;;4.98;47.46;98613.25;5059432;28;20036;-61
2021/01/27 10:27:34;;;;;;;3.95;2.60;;;;;;;4.97;47.58;98607.06;5089689;28;20436;-61
2021/01/27 10:30:21;;;;;;;6.80;3.10;;;;;;;4.94;47.88;98623.22;5079105;28;20048;-63
2021/01/27 10:32:47;;;;;;;4.05;2.88;;;;;;;4.97;47.28;98625.66;5063729;28;20412;-63
2021/01/27 10:35:29;;;;;;;4.53;2.47;;;;;;;4.66;47.27;98576.75;5083878;28;20058;-56
2021/01/27 10:38:00;;;;;;;3.88;2.40;;;;;;;4.98;46.75;98631.81;5084223;28;20064;-60
2021/01/27 10:40:31;;;;;;;3.67;2.72;;;;;;;4.97;47.11;98636.25;5078391;28;20504;-62
2021/01/27 10:43:03;;;;;;;4.53;2.20;;;;;;;4.84;47.23;98617.78;5057896;28;20051;-60
2021/01/27 10:45:42;;;;;;;4.15;2.42;;;;;;;4.97;47.46;98638.91;5053613;28;20116;-63
2021/01/27 10:48:22;;;;;;;4.50;2.25;;;;;;;5.01;47.23;98647.50;5071002;28;20064;-57
2021/01/27 10:51:08;;;;;;;4.53;2.47;;;;;;;5.01;46.92;98652.78;5086662;28;20097;-57
2021/01/27 10:53:44;;;;;;;3.60;2.75;;;;;;;4.98;47.32;98655.69;5076440;28;20127;-58
2021/01/27 10:56:16;;;;;;;4.20;2.58;;;;;;;4.85;47.35;98631.91;5069983;28;20070;-59
2021/01/27 10:58:42;;;;;;;3.72;2.25;;;;;;;5.02;47.68;98665.09;5085562;28;20043;-55
2021/01/27 11:01:08;;;;;;;2.30;1.77;;;;;;;5.09;47.37;98657.50;5076088;28;20054;-53
2021/01/27 11:03:33;;;;;;;2.83;1.67;;;;;;;5.05;47.24;98677.25;5070313;28;20040;-62
2021/01/27 11:05:59;;;;;;;3.10;2.05;;;;;;;4.87;47.28;98659.16;5068052;28;20044;-66
2021/01/27 11:08:33;;;;;;;4.45;1.95;;;;;;;4.97;47.52;98665.44;5056133;28;20032;-61
2021/01/27 11:11:02;;;;;;;2.60;1.85;;;;;;;4.88;47.09;98659.00;5068554;28;20054;-59
2021/01/27 11:13:30;;;;;;;2.65;1.77;;;;;;;4.92;46.82;98678.22;5080341;28;20028;-57
2021/01/27 11:15:56;;;;;;;3.88;2.30;;;;;;;4.71;47.22;98641.75;5082696;28;20048;-57
2021/01/27 11:18:21;;;;;;;2.60;1.75;;;;;;;4.83;47.59;98676.25;5073811;28;20119;-62
2021/01/27 11:20:48;;;;;;;4.63;1.98;;;;;;;4.85;47.13;98677.81;5073448;28;20036;-63
2021/01/27 11:23:14;;;;;;;2.67;1.83;;;;;;;4.82;46.64;98677.19;5072741;28;20059;-57
2021/01/27 11:25:39;;;;;;;2.55;1.80;;;;;;;4.70;47.65;98679.81;5081228;28;20067;-62
2021/01/27 11:28:05;;;;;;;4.13;2.10;;;;;;;4.74;47.22;98686.59;5069482;28;20043;-65
2021/01/27 11:30:30;;;;;;;1.83;1.60;;;;;;;4.28;47.15;98615.78;5087134;28;20500;-65
2021/01/27 11:33:00;;;;;;;3.88;1.88;;;;;;;4.32;47.46;98619.91;5055920;28;20047;-66
2021/01/27 11:35:25;;;;;;;4.05;1.80;;;;;;;4.70;47.64;98689.56;5071695;28;20649;-65
2021/01/27 11:37:52;;;;;;;4.03;1.75;;;;;;;4.25;47.63;98608.06;5076514;28;20114;-66
2021/01/27 11:40:22;;;;;;;2.88;1.67;;;;;;;4.83;47.10;98700.13;5070638;28;20095;-65
2021/01/27 11:42:47;;;;;;;2.13;1.42;;;;;;;4.83;47.38;98695.66;5085631;28;20038;-66
2021/01/27 11:45:14;;;;;;;2.67;1.75;;;;;;;4.76;47.40;98699.75;5075995;28;20036;-59
2021/01/27 11:47:39;;;;;;;5.38;1.95;;;;;;;4.71;47.60;98676.22;5070470;28;20044;-61
2021/01/27 11:50:07;;;;;;;3.28;2.03;;;;;;;4.86;47.30;98708.69;5083512;28;20047;-66
2021/01/27 11:52:32;;;;;;;2.88;1.80;;;;;;;4.88;47.69;98721.84;5068449;28;20076;-65
2021/01/27 11:54:58;;;;;;;3.85;2.17;;;;;;;4.59;47.85;98677.97;5085804;28;20227;-65
2021/01/27 11:57:24;;;;;;;2.35;1.60;;;;;;;4.70;47.33;98687.78;5076765;28;20036;-67
2021/01/27 11:59:49;;;;;;;2.60;1.83;;;;;;;4.89;47.09;98734.13;5078162;28;20029;-66
2021/01/27 12:02:14;;;;;;;2.83;1.83;;;;;;;4.93;47.12;98727.63;5057691;28;20036;-66
2021/01/27 12:04:40;;;;;;;2.72;1.50;;;;;;;4.94;47.21;98720.50;5084248;28;20032;-66
2021/01/27 12:07:06;;;;;;;4.35;1.70;;;;;;;4.92;46.98;98731.25;5073445;28;20206;-66
2021/01/27 12:09:33;;;;;;;2.40;1.75;;;;;;;4.87;47.72;98738.72;5080601;28;20036;-61
2021/01/27 12:11:59;;;;;;;3.10;1.58;;;;;;;4.80;47.00;98730.38;5070758;28;20139;-65